sensor_id;sensor_type;location;lat;lon;timestamp;temperature;humidity
41471;DHT22;27211;51.220;5.308;2023-08-17T09:51:34;22.90;99.90
41471;DHT22;27211;51.220;5.308;2023-08-17T09:54:02;22.70;99.90
41471;DHT22;27211;51.220;5.308;2023-08-17T09:56:29;22.70;99.90
41471;DHT22;27211;51.220;5.308;2023-08-17T09:58:58;22.90;99.90
41471;DHT22;27211;51.220;5.308;2023-08-17T10:01:26;23.00;99.90
41471;DHT22;27211;51.220;5.308;2023-08-17T10:03:54;22.90;99.90
41471;DHT22;27211;51.220;5.308;2023-08-17T10:06:25;22.80;99.90
41471;DHT22;27211;51.220;5.308;2023-08-17T10:08:54;22.90;99.90
41471;DHT22;27211;51.220;5.308;2023-08-17T10:11:24;22.90;99.90
41471;DHT22;27211;51.220;5.308;2023-08-17T10:13:59;22.90;99.90
41471;DHT22;27211;51.220;5.308;2023-08-17T10:18:55;22.90;99.90
41471;DHT22;27211;51.220;5.308;2023-08-17T10:21:29;22.90;99.90
41471;DHT22;27211;51.220;5.308;2023-08-17T10:24:05;23.00;99.90
41471;DHT22;27211;51.220;5.308;2023-08-17T10:26:33;23.20;99.90
41471;DHT22;27211;51.220;5.308;2023-08-17T10:29:00;23.00;99.90
41471;DHT22;27211;51.220;5.308;2023-08-17T10:31:29;22.80;99.90
41471;DHT22;27211;51.220;5.308;2023-08-17T10:33:56;22.70;99.90
41471;DHT22;27211;51.220;5.308;2023-08-17T10:36:24;22.60;99.90
41471;DHT22;27211;51.220;5.308;2023-08-17T10:41:45;22.70;99.90
41471;DHT22;27211;51.220;5.308;2023-08-17T10:44:13;22.90;99.90
41471;DHT22;27211;51.220;5.308;2023-08-17T10:46:40;23.00;99.90
41471;DHT22;27211;51.220;5.308;2023-08-17T10:49:24;22.80;99.90
41471;DHT22;27211;51.220;5.308;2023-08-17T10:52:04;22.70;99.90
41471;DHT22;27211;51.220;5.308;2023-08-17T10:54:37;22.70;99.90
41471;DHT22;27211;51.220;5.308;2023-08-17T11:02:33;22.60;99.90
41471;DHT22;27211;51.220;5.308;2023-08-17T11:05:01;22.70;99.90
41471;DHT22;27211;51.220;5.308;2023-08-17T11:07:38;22.80;99.90
41471;DHT22;27211;51.220;5.308;2023-08-17T11:10:27;23.10;99.90
41471;DHT22;27211;51.220;5.308;2023-08-17T11:12:58;23.10;99.90
41471;DHT22;27211;51.220;5.308;2023-08-17T11:18:10;23.10;99.90
41471;DHT22;27211;51.220;5.308;2023-08-17T11:20:41;23.40;99.90
41471;DHT22;27211;51.220;5.308;2023-08-17T11:23:08;23.30;99.90
41471;DHT22;27211;51.220;5.308;2023-08-17T11:25:36;23.50;99.90
41471;DHT22;27211;51.220;5.308;2023-08-17T11:28:05;23.10;99.90
41471;DHT22;27211;51.220;5.308;2023-08-17T11:30:33;23.50;99.90
41471;DHT22;27211;51.220;5.308;2023-08-17T11:33:05;23.50;99.90
41471;DHT22;27211;51.220;5.308;2023-08-17T11:35:32;23.40;99.90
41471;DHT22;27211;51.220;5.308;2023-08-17T11:38:00;23.50;99.90
41471;DHT22;27211;51.220;5.308;2023-08-17T11:40:29;23.60;99.90
41471;DHT22;27211;51.220;5.308;2023-08-17T11:43:00;23.60;99.90
41471;DHT22;27211;51.220;5.308;2023-08-17T11:45:27;23.50;99.90
41471;DHT22;27211;51.220;5.308;2023-08-17T11:47:55;23.50;99.90
41471;DHT22;27211;51.220;5.308;2023-08-17T11:50:24;23.60;99.90
41471;DHT22;27211;51.220;5.308;2023-08-17T11:52:51;23.60;99.90
41471;DHT22;27211;51.220;5.308;2023-08-17T11:55:19;23.50;99.90
41471;DHT22;27211;51.220;5.308;2023-08-17T11:57:53;23.50;99.90
41471;DHT22;27211;51.220;5.308;2023-08-17T12:00:27;23.60;99.90
41471;DHT22;27211;51.220;5.308;2023-08-17T12:03:02;23.90;99.90
41471;DHT22;27211;51.220;5.308;2023-08-17T12:05:30;24.20;99.90
41471;DHT22;27211;51.220;5.308;2023-08-17T12:07:58;24.30;99.90
41471;DHT22;27211;51.220;5.308;2023-08-17T12:10:32;24.40;99.90
41471;DHT22;27211;51.220;5.308;2023-08-17T12:13:11;23.80;99.90
41471;DHT22;27211;51.220;5.308;2023-08-17T12:15:38;23.70;99.90
41471;DHT22;27211;51.220;5.308;2023-08-17T12:18:05;23.40;99.90
41471;DHT22;27211;51.220;5.308;2023-08-17T12:20:33;23.50;99.90
41471;DHT22;27211;51.220;5.308;2023-08-17T12:23:02;23.60;99.90
41471;DHT22;27211;51.220;5.308;2023-08-17T12:25:30;23.60;99.90
41471;DHT22;27211;51.220;5.308;2023-08-17T12:28:07;23.60;99.90
41471;DHT22;27211;51.220;5.308;2023-08-17T12:30:34;23.70;99.90
41471;DHT22;27211;51.220;5.308;2023-08-17T12:33:03;23.80;99.90
41471;DHT22;27211;51.220;5.308;2023-08-17T12:35:31;23.80;99.90
41471;DHT22;27211;51.220;5.308;2023-08-17T12:37:58;23.50;99.90
41471;DHT22;27211;51.220;5.308;2023-08-17T12:40:26;23.50;99.90
41471;DHT22;27211;51.220;5.308;2023-08-17T12:43:01;23.20;99.90
41471;DHT22;27211;51.220;5.308;2023-08-17T12:45:30;23.20;99.90
41471;DHT22;27211;51.220;5.308;2023-08-17T12:47:59;23.40;99.90
41471;DHT22;27211;51.220;5.308;2023-08-17T12:50:32;23.50;99.90
41471;DHT22;27211;51.220;5.308;2023-08-17T12:53:01;23.80;99.90
41471;DHT22;27211;51.220;5.308;2023-08-17T12:55:29;24.00;99.90
41471;DHT22;27211;51.220;5.308;2023-08-17T12:57:59;24.00;99.90
41471;DHT22;27211;51.220;5.308;2023-08-17T13:00:27;24.10;99.90
41471;DHT22;27211;51.220;5.308;2023-08-17T13:02:55;24.20;99.90
41471;DHT22;27211;51.220;5.308;2023-08-17T13:05:23;24.10;99.90
41471;DHT22;27211;51.220;5.308;2023-08-17T13:07:59;24.20;99.90
41471;DHT22;27211;51.220;5.308;2023-08-17T13:10:27;24.10;99.90
41471;DHT22;27211;51.220;5.308;2023-08-17T13:13:03;24.10;99.90
41471;DHT22;27211;51.220;5.308;2023-08-17T13:15:32;23.90;99.90
41471;DHT22;27211;51.220;5.308;2023-08-17T13:17:59;23.60;99.90
41471;DHT22;27211;51.220;5.308;2023-08-17T13:20:26;23.80;99.90
41471;DHT22;27211;51.220;5.308;2023-08-17T13:22:54;23.80;99.90
41471;DHT22;27211;51.220;5.308;2023-08-17T13:25:23;23.80;99.90
41471;DHT22;27211;51.220;5.308;2023-08-17T13:27:50;23.80;99.90
41471;DHT22;27211;51.220;5.308;2023-08-17T13:30:18;23.80;99.90
41471;DHT22;27211;51.220;5.308;2023-08-17T13:32:45;23.90;99.90
41471;DHT22;27211;51.220;5.308;2023-08-17T13:35:14;23.90;99.90
41471;DHT22;27211;51.220;5.308;2023-08-17T13:37:42;23.90;99.90
41471;DHT22;27211;51.220;5.308;2023-08-17T13:40:10;23.80;99.90
41471;DHT22;27211;51.220;5.308;2023-08-17T13:42:44;23.50;99.90
41471;DHT22;27211;51.220;5.308;2023-08-17T13:45:12;23.50;99.90
41471;DHT22;27211;51.220;5.308;2023-08-17T13:47:50;23.40;99.90
41471;DHT22;27211;51.220;5.308;2023-08-17T13:50:17;23.50;99.90
41471;DHT22;27211;51.220;5.308;2023-08-17T13:52:45;23.50;99.90
41471;DHT22;27211;51.220;5.308;2023-08-17T13:55:13;23.70;99.90
41471;DHT22;27211;51.220;5.308;2023-08-17T13:57:41;23.60;99.90
41471;DHT22;27211;51.220;5.308;2023-08-17T14:00:09;23.60;99.90
41471;DHT22;27211;51.220;5.308;2023-08-17T14:02:36;23.60;99.90
41471;DHT22;27211;51.220;5.308;2023-08-17T14:05:05;23.60;99.90
41471;DHT22;27211;51.220;5.308;2023-08-17T14:07:33;23.70;99.90
41471;DHT22;27211;51.220;5.308;2023-08-17T14:10:08;23.80;99.90
41471;DHT22;27211;51.220;5.308;2023-08-17T14:12:36;23.90;99.90
41471;DHT22;27211;51.220;5.308;2023-08-17T14:15:04;23.80;99.90
41471;DHT22;27211;51.220;5.308;2023-08-17T14:17:32;23.70;99.90
41471;DHT22;27211;51.220;5.308;2023-08-17T14:20:00;23.40;99.90
41471;DHT22;27211;51.220;5.308;2023-08-17T14:22:29;23.60;99.90
41471;DHT22;27211;51.220;5.308;2023-08-17T14:24:57;23.50;99.90
41471;DHT22;27211;51.220;5.308;2023-08-17T14:27:25;23.90;99.90
41471;DHT22;27211;51.220;5.308;2023-08-17T14:29:53;23.70;99.90
41471;DHT22;27211;51.220;5.308;2023-08-17T14:32:20;23.50;99.90
41471;DHT22;27211;51.220;5.308;2023-08-17T14:34:48;23.80;99.90
41471;DHT22;27211;51.220;5.308;2023-08-17T14:37:16;23.70;99.90
41471;DHT22;27211;51.220;5.308;2023-08-17T14:39:44;23.60;99.90
41471;DHT22;27211;51.220;5.308;2023-08-17T14:42:12;23.70;99.90
41471;DHT22;27211;51.220;5.308;2023-08-17T14:44:42;24.10;99.90
41471;DHT22;27211;51.220;5.308;2023-08-17T14:47:10;24.10;99.90
41471;DHT22;27211;51.220;5.308;2023-08-17T14:49:38;24.40;99.90
41471;DHT22;27211;51.220;5.308;2023-08-17T14:52:05;24.40;99.90
41471;DHT22;27211;51.220;5.308;2023-08-17T14:54:33;24.50;99.90
41471;DHT22;27211;51.220;5.308;2023-08-17T14:57:01;24.50;99.90
41471;DHT22;27211;51.220;5.308;2023-08-17T14:59:35;24.60;99.90
41471;DHT22;27211;51.220;5.308;2023-08-17T15:02:03;24.60;99.90
41471;DHT22;27211;51.220;5.308;2023-08-17T15:04:31;24.90;99.90
41471;DHT22;27211;51.220;5.308;2023-08-17T15:07:00;24.90;99.90
41471;DHT22;27211;51.220;5.308;2023-08-17T15:09:34;24.90;99.90
41471;DHT22;27211;51.220;5.308;2023-08-17T15:12:02;24.80;99.90
41471;DHT22;27211;51.220;5.308;2023-08-17T15:14:30;24.70;99.90
41471;DHT22;27211;51.220;5.308;2023-08-17T15:16:58;24.70;99.90
41471;DHT22;27211;51.220;5.308;2023-08-17T15:19:34;24.60;99.90
41471;DHT22;27211;51.220;5.308;2023-08-17T15:22:05;24.50;99.90
41471;DHT22;27211;51.220;5.308;2023-08-17T15:24:40;24.50;99.90
41471;DHT22;27211;51.220;5.308;2023-08-17T15:27:08;24.50;99.90
41471;DHT22;27211;51.220;5.308;2023-08-17T15:29:41;24.50;99.90
41471;DHT22;27211;51.220;5.308;2023-08-17T15:32:16;24.10;99.90
41471;DHT22;27211;51.220;5.308;2023-08-17T15:34:44;24.20;99.90
41471;DHT22;27211;51.220;5.308;2023-08-17T15:37:20;24.10;99.90
41471;DHT22;27211;51.220;5.308;2023-08-17T15:39:48;24.10;99.90
41471;DHT22;27211;51.220;5.308;2023-08-17T15:42:15;24.20;99.90
41471;DHT22;27211;51.220;5.308;2023-08-17T15:44:44;24.20;99.90
41471;DHT22;27211;51.220;5.308;2023-08-17T15:47:12;24.30;99.90
41471;DHT22;27211;51.220;5.308;2023-08-17T15:49:40;24.50;99.90
41471;DHT22;27211;51.220;5.308;2023-08-17T15:52:13;24.60;99.90
41471;DHT22;27211;51.220;5.308;2023-08-17T15:54:41;24.50;99.90
41471;DHT22;27211;51.220;5.308;2023-08-17T15:57:09;24.50;99.90
41471;DHT22;27211;51.220;5.308;2023-08-17T15:59:36;24.40;99.90
41471;DHT22;27211;51.220;5.308;2023-08-17T16:02:04;24.30;99.90
41471;DHT22;27211;51.220;5.308;2023-08-17T16:04:32;24.20;99.90
41471;DHT22;27211;51.220;5.308;2023-08-17T16:07:07;24.20;99.90
41471;DHT22;27211;51.220;5.308;2023-08-17T16:09:35;24.10;99.90
41471;DHT22;27211;51.220;5.308;2023-08-17T16:12:03;24.20;99.90
41471;DHT22;27211;51.220;5.308;2023-08-17T16:14:32;24.20;99.90
41471;DHT22;27211;51.220;5.308;2023-08-17T16:16:59;24.20;99.90
41471;DHT22;27211;51.220;5.308;2023-08-17T16:19:27;24.20;99.90
41471;DHT22;27211;51.220;5.308;2023-08-17T16:21:55;24.10;99.90
41471;DHT22;27211;51.220;5.308;2023-08-17T16:24:22;23.90;99.90
41471;DHT22;27211;51.220;5.308;2023-08-17T16:26:50;23.80;99.90
41471;DHT22;27211;51.220;5.308;2023-08-17T16:29:25;23.90;99.90
41471;DHT22;27211;51.220;5.308;2023-08-17T16:32:02;23.90;99.90
41471;DHT22;27211;51.220;5.308;2023-08-17T16:34:30;23.80;99.90
41471;DHT22;27211;51.220;5.308;2023-08-17T16:36:57;23.70;99.90
41471;DHT22;27211;51.220;5.308;2023-08-17T16:39:25;23.70;99.90
41471;DHT22;27211;51.220;5.308;2023-08-17T16:41:53;23.70;99.90
41471;DHT22;27211;51.220;5.308;2023-08-17T16:44:23;23.70;99.90
41471;DHT22;27211;51.220;5.308;2023-08-17T16:46:52;23.50;99.90
41471;DHT22;27211;51.220;5.308;2023-08-17T16:49:19;23.50;99.90
41471;DHT22;27211;51.220;5.308;2023-08-17T16:51:47;23.70;99.90
41471;DHT22;27211;51.220;5.308;2023-08-17T16:54:15;24.00;99.90
41471;DHT22;27211;51.220;5.308;2023-08-17T16:56:50;23.90;99.90
41471;DHT22;27211;51.220;5.308;2023-08-17T16:59:18;23.80;99.90
41471;DHT22;27211;51.220;5.308;2023-08-17T17:01:46;23.60;99.90
41471;DHT22;27211;51.220;5.308;2023-08-17T17:04:14;23.30;99.90
41471;DHT22;27211;51.220;5.308;2023-08-17T17:06:42;23.10;99.90
41471;DHT22;27211;51.220;5.308;2023-08-17T17:09:10;23.00;99.90
41471;DHT22;27211;51.220;5.308;2023-08-17T17:11:38;22.90;99.90
41471;DHT22;27211;51.220;5.308;2023-08-17T17:14:08;23.10;99.90
41471;DHT22;27211;51.220;5.308;2023-08-17T17:16:37;23.10;99.90
41471;DHT22;27211;51.220;5.308;2023-08-17T17:19:04;23.00;99.90
41471;DHT22;27211;51.220;5.308;2023-08-17T17:21:33;22.90;99.90
41471;DHT22;27211;51.220;5.308;2023-08-17T17:24:08;22.80;99.90
41471;DHT22;27211;51.220;5.308;2023-08-17T17:26:44;23.00;99.90
41471;DHT22;27211;51.220;5.308;2023-08-17T17:29:12;22.70;99.90
41471;DHT22;27211;51.220;5.308;2023-08-17T17:31:47;22.70;99.90
41471;DHT22;27211;51.220;5.308;2023-08-17T17:34:18;22.70;99.90
41471;DHT22;27211;51.220;5.308;2023-08-17T17:36:45;22.80;99.90
41471;DHT22;27211;51.220;5.308;2023-08-17T17:39:14;22.70;99.90
41471;DHT22;27211;51.220;5.308;2023-08-17T17:41:41;22.60;99.90
41471;DHT22;27211;51.220;5.308;2023-08-17T17:44:09;22.40;99.90
41471;DHT22;27211;51.220;5.308;2023-08-17T17:46:36;22.30;99.90
41471;DHT22;27211;51.220;5.308;2023-08-17T17:49:12;22.10;99.90
41471;DHT22;27211;51.220;5.308;2023-08-17T17:51:40;22.20;99.90
41471;DHT22;27211;51.220;5.308;2023-08-17T17:54:08;22.20;99.90
41471;DHT22;27211;51.220;5.308;2023-08-17T17:56:42;22.30;99.90
41471;DHT22;27211;51.220;5.308;2023-08-17T17:59:10;22.20;99.90
41471;DHT22;27211;51.220;5.308;2023-08-17T18:01:37;22.20;99.90
41471;DHT22;27211;51.220;5.308;2023-08-17T18:04:04;22.20;99.90
41471;DHT22;27211;51.220;5.308;2023-08-17T18:06:32;21.90;99.90
41471;DHT22;27211;51.220;5.308;2023-08-17T18:09:01;21.80;99.90
41471;DHT22;27211;51.220;5.308;2023-08-17T18:11:30;21.80;99.90
41471;DHT22;27211;51.220;5.308;2023-08-17T18:13:57;21.70;99.90
41471;DHT22;27211;51.220;5.308;2023-08-17T18:16:26;21.70;99.90
41471;DHT22;27211;51.220;5.308;2023-08-17T18:18:54;21.80;99.90
41471;DHT22;27211;51.220;5.308;2023-08-17T18:21:21;21.80;99.90
41471;DHT22;27211;51.220;5.308;2023-08-17T18:23:49;21.90;99.90
41471;DHT22;27211;51.220;5.308;2023-08-17T18:26:17;21.80;99.90
41471;DHT22;27211;51.220;5.308;2023-08-17T18:28:44;21.70;99.90
41471;DHT22;27211;51.220;5.308;2023-08-17T18:31:19;21.70;99.90
41471;DHT22;27211;51.220;5.308;2023-08-17T18:33:53;21.70;99.90
41471;DHT22;27211;51.220;5.308;2023-08-17T18:36:21;21.70;99.90
41471;DHT22;27211;51.220;5.308;2023-08-17T18:38:50;21.70;99.90
41471;DHT22;27211;51.220;5.308;2023-08-17T18:41:18;21.60;99.90
41471;DHT22;27211;51.220;5.308;2023-08-17T18:43:46;21.60;99.90
41471;DHT22;27211;51.220;5.308;2023-08-17T18:46:14;21.60;99.90
41471;DHT22;27211;51.220;5.308;2023-08-17T18:48:42;21.80;99.90
41471;DHT22;27211;51.220;5.308;2023-08-17T18:51:11;21.90;99.90
41471;DHT22;27211;51.220;5.308;2023-08-17T18:53:46;21.90;99.90
41471;DHT22;27211;51.220;5.308;2023-08-17T18:56:14;21.80;99.90
41471;DHT22;27211;51.220;5.308;2023-08-17T18:58:41;21.50;99.90
41471;DHT22;27211;51.220;5.308;2023-08-17T19:01:09;21.60;99.90
41471;DHT22;27211;51.220;5.308;2023-08-17T19:03:36;21.50;99.90
41471;DHT22;27211;51.220;5.308;2023-08-17T19:06:04;21.40;99.90
41471;DHT22;27211;51.220;5.308;2023-08-17T19:08:33;21.30;99.90
41471;DHT22;27211;51.220;5.308;2023-08-17T19:11:01;21.40;99.90
41471;DHT22;27211;51.220;5.308;2023-08-17T19:13:29;21.30;99.90
41471;DHT22;27211;51.220;5.308;2023-08-17T19:15:57;21.40;99.90
41471;DHT22;27211;51.220;5.308;2023-08-17T19:18:26;21.40;99.90
41471;DHT22;27211;51.220;5.308;2023-08-17T19:20:53;21.40;99.90
41471;DHT22;27211;51.220;5.308;2023-08-17T19:23:28;21.30;99.90
41471;DHT22;27211;51.220;5.308;2023-08-17T19:25:56;21.30;99.90
41471;DHT22;27211;51.220;5.308;2023-08-17T19:28:23;21.50;99.90
41471;DHT22;27211;51.220;5.308;2023-08-17T19:30:51;21.30;99.90
41471;DHT22;27211;51.220;5.308;2023-08-17T19:33:27;21.20;99.90
41471;DHT22;27211;51.220;5.308;2023-08-17T19:36:03;21.10;99.90
41471;DHT22;27211;51.220;5.308;2023-08-17T19:38:35;21.10;99.90
41471;DHT22;27211;51.220;5.308;2023-08-17T19:41:06;21.10;99.90
41471;DHT22;27211;51.220;5.308;2023-08-17T19:43:33;21.20;99.90
41471;DHT22;27211;51.220;5.308;2023-08-17T19:46:00;21.00;99.90
41471;DHT22;27211;51.220;5.308;2023-08-17T19:48:36;21.10;99.90
41471;DHT22;27211;51.220;5.308;2023-08-17T19:51:04;21.20;99.90
41471;DHT22;27211;51.220;5.308;2023-08-17T19:53:31;21.20;99.90
41471;DHT22;27211;51.220;5.308;2023-08-17T19:55:59;21.00;99.90
41471;DHT22;27211;51.220;5.308;2023-08-17T19:58:26;20.90;99.90
41471;DHT22;27211;51.220;5.308;2023-08-17T20:00:54;21.00;99.90
41471;DHT22;27211;51.220;5.308;2023-08-17T20:03:21;21.10;99.90
41471;DHT22;27211;51.220;5.308;2023-08-17T20:05:49;21.30;99.90
41471;DHT22;27211;51.220;5.308;2023-08-17T20:08:17;21.10;99.90
41471;DHT22;27211;51.220;5.308;2023-08-17T20:10:45;21.10;99.90
41471;DHT22;27211;51.220;5.308;2023-08-17T20:13:12;21.10;99.90
41471;DHT22;27211;51.220;5.308;2023-08-17T20:15:52;21.00;99.90
41471;DHT22;27211;51.220;5.308;2023-08-17T20:18:19;20.90;99.90
41471;DHT22;27211;51.220;5.308;2023-08-17T20:20:50;20.90;99.90
41471;DHT22;27211;51.220;5.308;2023-08-17T20:23:23;21.00;99.90
41471;DHT22;27211;51.220;5.308;2023-08-17T20:25:51;21.00;99.90
41471;DHT22;27211;51.220;5.308;2023-08-17T20:28:23;21.00;99.90
41471;DHT22;27211;51.220;5.308;2023-08-17T20:30:54;21.10;99.90
41471;DHT22;27211;51.220;5.308;2023-08-17T20:33:22;21.10;99.90
41471;DHT22;27211;51.220;5.308;2023-08-17T20:35:53;21.10;99.90
41471;DHT22;27211;51.220;5.308;2023-08-17T20:38:21;21.00;99.90
41471;DHT22;27211;51.220;5.308;2023-08-17T20:40:56;21.10;99.90
41471;DHT22;27211;51.220;5.308;2023-08-17T20:43:31;21.10;99.90
41471;DHT22;27211;51.220;5.308;2023-08-17T20:46:06;21.10;99.90
41471;DHT22;27211;51.220;5.308;2023-08-17T20:48:34;21.30;99.90
41471;DHT22;27211;51.220;5.308;2023-08-17T20:51:06;21.10;99.90
41471;DHT22;27211;51.220;5.308;2023-08-17T20:53:34;21.10;99.90
41471;DHT22;27211;51.220;5.308;2023-08-17T20:56:01;21.10;99.90
41471;DHT22;27211;51.220;5.308;2023-08-17T20:58:29;21.20;99.90
41471;DHT22;27211;51.220;5.308;2023-08-17T21:01:04;21.30;99.90
41471;DHT22;27211;51.220;5.308;2023-08-17T21:03:32;21.30;99.90
41471;DHT22;27211;51.220;5.308;2023-08-17T21:06:03;21.30;99.90
41471;DHT22;27211;51.220;5.308;2023-08-17T21:08:38;21.00;99.90
41471;DHT22;27211;51.220;5.308;2023-08-17T21:11:06;21.00;99.90
41471;DHT22;27211;51.220;5.308;2023-08-17T21:13:34;21.10;99.90
41471;DHT22;27211;51.220;5.308;2023-08-17T21:16:02;21.00;99.90
41471;DHT22;27211;51.220;5.308;2023-08-17T21:18:29;21.10;99.90
41471;DHT22;27211;51.220;5.308;2023-08-17T21:20:57;21.00;99.90
41471;DHT22;27211;51.220;5.308;2023-08-17T21:23:32;20.90;99.90
41471;DHT22;27211;51.220;5.308;2023-08-17T21:26:04;21.10;99.90
41471;DHT22;27211;51.220;5.308;2023-08-17T21:28:32;21.00;99.90
41471;DHT22;27211;51.220;5.308;2023-08-17T21:31:03;21.00;99.90
41471;DHT22;27211;51.220;5.308;2023-08-17T21:33:31;20.90;99.90
41471;DHT22;27211;51.220;5.308;2023-08-17T21:35:59;20.90;99.90
41471;DHT22;27211;51.220;5.308;2023-08-17T21:38:26;20.80;99.90
41471;DHT22;27211;51.220;5.308;2023-08-17T21:40:55;20.80;99.90
41471;DHT22;27211;51.220;5.308;2023-08-17T21:43:22;20.70;99.90
41471;DHT22;27211;51.220;5.308;2023-08-17T21:45:53;20.90;99.90
41471;DHT22;27211;51.220;5.308;2023-08-17T21:48:20;20.80;99.90
41471;DHT22;27211;51.220;5.308;2023-08-17T21:50:54;20.70;99.90
41471;DHT22;27211;51.220;5.308;2023-08-17T21:53:21;20.60;99.90
41471;DHT22;27211;51.220;5.308;2023-08-17T21:55:50;20.50;99.90
41471;DHT22;27211;51.220;5.308;2023-08-17T21:58:18;20.50;99.90
41471;DHT22;27211;51.220;5.308;2023-08-17T22:00:47;20.50;99.90
41471;DHT22;27211;51.220;5.308;2023-08-17T22:03:15;20.50;99.90
41471;DHT22;27211;51.220;5.308;2023-08-17T22:05:43;20.50;99.90
41471;DHT22;27211;51.220;5.308;2023-08-17T22:08:14;20.70;99.90
41471;DHT22;27211;51.220;5.308;2023-08-17T22:10:41;20.60;99.90
41471;DHT22;27211;51.220;5.308;2023-08-17T22:13:07;20.60;99.90
41471;DHT22;27211;51.220;5.308;2023-08-17T22:15:33;20.60;99.90
41471;DHT22;27211;51.220;5.308;2023-08-17T22:18:00;20.50;99.90
41471;DHT22;27211;51.220;5.308;2023-08-17T22:20:29;20.50;99.90
41471;DHT22;27211;51.220;5.308;2023-08-17T22:22:58;20.40;99.90
41471;DHT22;27211;51.220;5.308;2023-08-17T22:25:24;20.60;99.90
41471;DHT22;27211;51.220;5.308;2023-08-17T22:27:50;20.70;99.90
41471;DHT22;27211;51.220;5.308;2023-08-17T22:30:17;20.60;99.90
41471;DHT22;27211;51.220;5.308;2023-08-17T22:32:45;20.50;99.90
41471;DHT22;27211;51.220;5.308;2023-08-17T22:35:14;20.60;99.90
41471;DHT22;27211;51.220;5.308;2023-08-17T22:37:47;20.50;99.90
41471;DHT22;27211;51.220;5.308;2023-08-17T22:40:18;20.60;99.90
41471;DHT22;27211;51.220;5.308;2023-08-17T22:42:45;20.70;99.90
41471;DHT22;27211;51.220;5.308;2023-08-17T22:45:13;20.70;99.90
41471;DHT22;27211;51.220;5.308;2023-08-17T22:47:47;20.90;99.90
41471;DHT22;27211;51.220;5.308;2023-08-17T22:50:15;20.70;99.90
41471;DHT22;27211;51.220;5.308;2023-08-17T22:52:43;20.80;99.90
41471;DHT22;27211;51.220;5.308;2023-08-17T22:55:10;20.70;99.90
41471;DHT22;27211;51.220;5.308;2023-08-17T22:57:37;20.70;99.90
41471;DHT22;27211;51.220;5.308;2023-08-17T23:00:06;20.80;99.90
41471;DHT22;27211;51.220;5.308;2023-08-17T23:02:34;20.80;99.90
41471;DHT22;27211;51.220;5.308;2023-08-17T23:05:02;20.90;99.90
41471;DHT22;27211;51.220;5.308;2023-08-17T23:07:30;21.00;99.90
41471;DHT22;27211;51.220;5.308;2023-08-17T23:09:57;21.00;99.90
41471;DHT22;27211;51.220;5.308;2023-08-17T23:12:32;20.90;99.90
41471;DHT22;27211;51.220;5.308;2023-08-17T23:15:00;20.80;99.90
41471;DHT22;27211;51.220;5.308;2023-08-17T23:17:37;20.60;99.90
41471;DHT22;27211;51.220;5.308;2023-08-17T23:20:15;20.60;99.90
41471;DHT22;27211;51.220;5.308;2023-08-17T23:22:48;20.70;99.90
41471;DHT22;27211;51.220;5.308;2023-08-17T23:25:17;20.70;99.90
41471;DHT22;27211;51.220;5.308;2023-08-17T23:27:45;20.60;99.90
41471;DHT22;27211;51.220;5.308;2023-08-17T23:30:19;20.40;99.90
41471;DHT22;27211;51.220;5.308;2023-08-17T23:32:47;20.40;99.90
41471;DHT22;27211;51.220;5.308;2023-08-17T23:35:16;20.60;99.90
41471;DHT22;27211;51.220;5.308;2023-08-17T23:37:45;20.70;99.90
41471;DHT22;27211;51.220;5.308;2023-08-17T23:40:15;20.50;99.90
41471;DHT22;27211;51.220;5.308;2023-08-17T23:42:44;20.30;99.90
41471;DHT22;27211;51.220;5.308;2023-08-17T23:45:12;20.40;99.90
41471;DHT22;27211;51.220;5.308;2023-08-17T23:47:41;20.40;99.90
41471;DHT22;27211;51.220;5.308;2023-08-17T23:50:09;20.50;99.90
41471;DHT22;27211;51.220;5.308;2023-08-17T23:52:37;20.10;99.90
41471;DHT22;27211;51.220;5.308;2023-08-17T23:55:05;20.20;99.90
41471;DHT22;27211;51.220;5.308;2023-08-17T23:57:32;20.10;99.90
